AirNav  
 
 1064 users online  

93FD Chumuckla 20-20 Airport
Milton, Florida, USA

GOING TO MILTON?


FAA INFORMATION EFFECTIVE 25 FEBRUARY 2021

Location

FAA Identifier: 93FD
Lat/Long: 30-45-16.6810N 087-10-38.8940W
30-45.278017N 087-10.648233W
30.7546336,-87.1774706
(estimated)
Elevation: 205 ft. / 62 m (estimated)
Variation: 00E (1990)
From city: 10 miles NW of MILTON, FL
Time zone: UTC -6 (UTC -5 during Daylight Saving Time)
Zip code: 32571

Airport Operations

Airport use: CLOSED INDEFINITELY
Activation date: 04/1993
Control tower: no
ARTCC: JACKSONVILLE CENTER
FSS: GAINESVILLE FLIGHT SERVICE STATION
Attendance: UNATNDD
Segmented circle: no

Airport Communications

WX ASOS at NSE (8 nm E): PHONE 850-623-7241
WX ASOS at NDZ (9 nm E): PHONE 850-623-7210
WX ASOS at PNS (17 nm S): PHONE 850-436-4799
WX AWOS-3PT at 12J (19 nm N): 119.325 (251-809-2987)

Nearby radio navigation aids

VOR radial/distance  VOR name  Freq  Var
NUNr025/(18.8)SAUFLEY VOR108.8001E
CEWr258/26.0CRESTVIEW VORTAC115.9003E

 
NDB name  Hdg/Dist  Freq  Var  ID
PICKENS002/19.132602WPKZ .--. -.- --..

Airport Services

Runway Information

Runway 18/36

Dimensions: 3000 x 100 ft. / 914 x 30 m
Surface: turf
RUNWAY 18  RUNWAY 36
Traffic pattern: leftleft
Obstructions: 30 ft. trees30 ft. trees

Airport Ownership and Management from official FAA records

Ownership: Privately-owned
Owner: MARTIN D. GRISWOLD
10113 CHUMUCKLA SPGS RD
JAY, FL 32565-9391
Phone 850-994-0654
CELL: 850-336-0690
Manager: MARTIN D. GRISWOLD
10113 CHUMUCKLA SPGS RD
JAY, FL 32565-9391
Phone 850-994-0654
CELL: 850-336-0690

Airport Operational Statistics

Aircraft based on the field: 1
Single engine airplanes: 1
    

Additional Remarks

FOR CD CTC PENSACOLA APCH AT 850-266-6884 OR 850-266-6885.
(ARPT STATUS) ARPT CLSD INDEFLY.

Instrument Procedures

There are no published instrument procedures at 93FD.

Some nearby airports with instrument procedures:

KNSE - Whiting Field Naval Air Station North (8 nm E)
KNDZ - Whiting Field Naval Air Station South (9 nm E)
2R4 - Peter Prince Field Airport (12 nm SE)
KPNS - Pensacola International Airport (17 nm S)
12J - Brewton Municipal Airport (19 nm N)
 
Loc | Ops | Rwys | IFR | FBO | Links
Com | Nav | Svcs | Stats | Notes
Area around 93FD (Chumuckla 20-20 Airport)
 
Road maps at: MapQuest Bing Google
 
Aerial photo
No photo
 
Sectional chart

 
Airport distance calculator
Flying to Chumuckla 20-20 Airport? Find the distance to fly.

From to 93FD

Sunrise and sunset
Times for 01-Mar-2021
 Local
(UTC-6)
 Zulu
(UTC)
Morning civil twilight05:5211:52
Sunrise06:1612:16
Sunset17:4623:46
Evening civil twilight18:1000:10

Current date and time
Zulu (UTC)  01-Mar-2021 14:12:05
Local (UTC-6)  01-Mar-2021 08:12:05
 
METAR
KNDZ 
9nm E 
011256Z 00000KT 2 1/2SM BR OVC004 23/22 A3004 RMK AO2 SLP159 T02280217 $
KNSE 
9nm E 
011356Z 20003KT 3SM BR SCT003 BKN020 BKN050 22/21 A3006 RMK AO2 RAB26E45 SLP164 T02170206 PNO $
KPNS 
16nm S 
011403Z 00000KT 2 1/2SM BR OVC003 23/22 A3005 RMK AO2 T02280222
TAF
KNSE 
9nm E 
2823/0123 19011KT 9999 SCT010 QNH2996INS BECMG 0104/0106 VRB06KT 6000 BR BKN008 OVC012 QNH2997INS TEMPO 0107/0113 2400 BR OVC002 BECMG 0116/0118 VRB06KT 9999 VCSH BKN035 OVC060 QNH2998INS TEMPO 0118/0123 4800 SHRA BKN015 OVC030 AUTOMATED SENSOR METWATCH 2823 TIL 0112 T19/0113Z T25/0120Z FN00237
KPNS 
16nm S 
010259Z 0103/0124 18005KT 1/2SM FG VCSH OVC002 FM010400 18007KT 1/4SM FG VCSH OVC002 FM011200 21005KT 1/4SM FG VCSH OVC002 FM011500 23005KT 1/4SM -SHRA FG OVC008 FM012000 36010G15KT 6SM -SHRA OVC035 PROB30 0121/0123 5SM RA OVC030
NOTAMs
Click for the latest NOTAMs
NOTAMs are issued by the DoD/FAA and will open in a separate window not controlled by AirNav.

 

 
 

Would you like to see your business listed on this page?

 If your business provides an interesting product or service to pilots, flight crews, aircraft, or users of the Chumuckla 20-20 Airport, you should consider listing it here.  To start the listing process, click on the button below
 
Add a business
 

Other Pages about Chumuckla 20-20 Airport

Update a link
 
Copyright © AirNav, LLC. All rights reserved. Privacy Policy  Contact